createdAt,value
2022-11-04T00:02:50.579Z,11.91
2022-11-04T00:08:22.263Z,11.98
2022-11-04T00:13:53.820Z,12.05
2022-11-04T00:19:25.934Z,12.10
2022-11-04T00:24:57.384Z,12.15
2022-11-04T00:30:28.887Z,12.23
2022-11-04T00:36:00.643Z,12.27
2022-11-04T00:41:32.333Z,12.28
2022-11-04T00:47:04.135Z,12.25
2022-11-04T00:52:35.960Z,12.22
2022-11-04T00:58:07.737Z,12.21
2022-11-04T01:03:39.724Z,12.17
2022-11-04T01:09:11.249Z,12.07
2022-11-04T01:14:42.893Z,11.94
2022-11-04T01:20:14.506Z,11.81
2022-11-04T01:25:46.202Z,11.70
2022-11-04T01:31:17.965Z,11.57
2022-11-04T01:36:49.651Z,11.42
2022-11-04T01:42:21.041Z,11.28
2022-11-04T01:47:52.592Z,11.16
2022-11-04T01:53:24.178Z,11.08
2022-11-04T01:58:55.766Z,11.03
2022-11-04T02:04:27.418Z,10.98
2022-11-04T02:09:59.155Z,10.94
2022-11-04T02:15:31.075Z,10.92
2022-11-04T02:21:02.727Z,10.90
2022-11-04T02:26:34.356Z,10.87
2022-11-04T02:32:05.835Z,10.84
2022-11-04T02:37:37.524Z,10.82
2022-11-04T02:43:09.351Z,10.81
2022-11-04T02:48:40.673Z,10.79
2022-11-04T02:54:12.394Z,10.76
2022-11-04T02:59:44.006Z,10.74
2022-11-04T03:05:15.503Z,10.72
2022-11-04T03:10:46.947Z,10.69
2022-11-04T03:16:18.176Z,10.68
2022-11-04T03:21:49.633Z,10.66
2022-11-04T03:27:20.806Z,10.65
2022-11-04T03:32:58.291Z,10.64
2022-11-04T03:38:29.789Z,10.63
2022-11-04T03:44:01.440Z,10.62
2022-11-04T03:49:32.947Z,10.59
2022-11-04T03:55:04.511Z,10.58
2022-11-04T04:00:36.291Z,10.56
2022-11-04T04:06:07.858Z,10.54
2022-11-04T04:11:39.116Z,10.54
2022-11-04T04:22:42.045Z,10.54
2022-11-04T04:28:19.328Z,10.53
2022-11-04T04:33:50.616Z,10.52
2022-11-04T04:39:22.150Z,10.51
2022-11-04T04:44:53.935Z,10.50
2022-11-04T04:50:25.563Z,10.51
2022-11-04T04:55:56.807Z,10.51
2022-11-04T05:01:28.373Z,10.52
2022-11-04T05:06:59.442Z,10.52
2022-11-04T05:12:30.971Z,10.51
2022-11-04T05:18:02.580Z,10.51
2022-11-04T05:23:34.082Z,10.51
2022-11-04T05:29:05.625Z,10.52
2022-11-04T05:34:36.908Z,10.51
2022-11-04T05:40:08.582Z,10.49
2022-11-04T05:45:39.856Z,10.45
2022-11-04T05:51:11.152Z,10.37
2022-11-04T05:56:42.511Z,10.27
2022-11-04T06:02:14.263Z,10.17
2022-11-04T06:07:45.569Z,10.08
2022-11-04T06:13:16.829Z,9.98
2022-11-04T06:18:48.118Z,9.88
2022-11-04T06:24:21.223Z,9.81
2022-11-04T06:29:52.657Z,9.76
2022-11-04T06:35:30.055Z,9.70
2022-11-04T06:41:01.735Z,9.61
2022-11-04T06:46:33.165Z,9.53
2022-11-04T06:52:04.424Z,9.49
2022-11-04T06:57:37.284Z,9.43
2022-11-04T07:03:09.215Z,9.36
2022-11-04T07:14:09.796Z,9.28
2022-11-04T07:19:41.454Z,9.27
2022-11-04T07:25:13.236Z,9.28
2022-11-04T07:30:44.923Z,9.30
2022-11-04T07:36:16.261Z,9.33
2022-11-04T07:41:48.192Z,9.36
2022-11-04T07:52:48.780Z,9.41
2022-11-04T08:03:49.913Z,9.48
2022-11-04T08:14:50.390Z,9.45
2022-11-04T08:20:21.995Z,9.44
2022-11-04T08:25:53.601Z,9.44
2022-11-04T08:36:54.420Z,9.48
2022-11-04T08:42:26.235Z,9.53
2022-11-04T08:48:01.388Z,9.58
2022-11-04T09:09:57.966Z,9.80
2022-11-04T09:15:29.631Z,9.89
2022-11-04T09:21:00.915Z,9.97
2022-11-04T09:26:32.852Z,10.04
2022-11-04T09:32:04.693Z,10.08
2022-11-04T09:43:05.332Z,10.09
2022-11-04T09:48:37.251Z,10.08
2022-11-04T09:54:08.920Z,10.05
2022-11-04T09:59:40.840Z,10.01
2022-11-04T10:10:42.219Z,9.94
2022-11-04T10:16:13.784Z,9.94
2022-11-04T10:21:45.785Z,9.97
2022-11-04T10:27:17.203Z,10.02
2022-11-04T10:32:48.539Z,10.10
2022-11-04T10:43:49.471Z,10.25
2022-11-04T10:54:50.820Z,10.36
2022-11-04T11:00:22.576Z,10.41
2022-11-04T11:05:54.177Z,10.46
2022-11-04T11:11:26.128Z,10.50
2022-11-04T11:22:27.556Z,10.64
2022-11-04T11:33:28.780Z,10.79
2022-11-04T11:39:00.644Z,10.86
2022-11-04T11:44:32.422Z,10.91
2022-11-04T11:50:04.282Z,10.92
2022-11-04T11:52:16.613Z,10.58
2022-11-04T12:03:20.810Z,10.85
2022-11-04T12:14:23.214Z,10.92
2022-11-04T12:19:54.539Z,10.91
2022-11-04T12:25:25.926Z,10.91
2022-11-04T12:30:57.953Z,10.93
2022-11-04T12:36:29.614Z,10.92
2022-11-04T12:47:33.267Z,10.92
2022-11-04T12:53:05.190Z,10.92
2022-11-04T12:58:37.051Z,10.90
2022-11-04T13:04:09.239Z,10.85
2022-11-04T13:09:41.026Z,10.81
2022-11-04T13:15:12.697Z,10.75
2022-11-04T13:20:44.590Z,10.67
2022-11-04T13:26:16.390Z,10.61
2022-11-04T13:31:48.044Z,10.55
2022-11-04T13:37:19.847Z,10.55
2022-11-04T13:42:51.792Z,10.48
2022-11-04T13:48:23.238Z,10.37
2022-11-04T13:53:54.914Z,10.30
2022-11-04T13:59:26.837Z,10.25
2022-11-04T14:04:58.301Z,10.21
2022-11-04T14:10:29.842Z,10.18
2022-11-04T14:16:01.585Z,10.16
2022-11-04T14:21:33.364Z,10.15
2022-11-04T14:27:05.041Z,10.15
2022-11-04T14:32:36.825Z,10.14
2022-11-04T14:38:08.535Z,10.13
2022-11-04T14:43:40.280Z,10.12
2022-11-04T14:49:12.138Z,10.12
2022-11-04T14:54:43.741Z,10.11
2022-11-04T15:00:15.513Z,10.11
2022-11-04T15:11:18.561Z,10.04
2022-11-04T15:16:49.860Z,10.00
2022-11-04T15:27:50.792Z,9.90
2022-11-04T15:33:22.577Z,9.79
2022-11-04T15:39:00.284Z,9.71
2022-11-04T15:44:31.975Z,9.63
2022-11-04T15:50:03.836Z,9.53
2022-11-04T15:55:41.448Z,9.44
2022-11-04T16:03:25.790Z,8.85
2022-11-04T16:08:57.512Z,9.02
2022-11-04T16:14:28.908Z,9.08
2022-11-04T16:20:00.819Z,9.06
2022-11-04T16:25:32.713Z,9.02
2022-11-04T16:31:04.560Z,8.96
2022-11-04T16:36:36.329Z,8.88
2022-11-04T16:42:07.956Z,8.78
2022-11-04T16:47:40.023Z,8.66
2022-11-04T16:53:17.283Z,8.55
2022-11-04T16:58:49.080Z,8.41
2022-11-04T17:04:20.942Z,8.27
2022-11-04T17:09:53.591Z,8.14
2022-11-04T17:15:25.447Z,8.03
2022-11-04T17:20:57.223Z,7.94
2022-11-04T17:26:29.159Z,7.85
2022-11-04T17:32:00.864Z,7.79
2022-11-04T17:37:32.744Z,7.76
2022-11-04T17:43:10.310Z,7.73
2022-11-04T17:54:05.620Z,7.73
2022-11-04T18:07:27.559Z,7.31
2022-11-04T18:12:59.350Z,7.49
2022-11-04T18:18:31.162Z,7.59
2022-11-04T18:24:02.833Z,7.65
2022-11-04T18:29:34.216Z,7.69
2022-11-04T18:35:06.196Z,7.71
2022-11-04T18:40:37.928Z,7.72
2022-11-04T18:46:09.727Z,7.72
2022-11-04T18:51:41.614Z,7.71
2022-11-04T18:57:13.273Z,7.69
2022-11-04T19:02:46.211Z,7.67
2022-11-04T19:08:18.015Z,7.65
2022-11-04T19:13:55.108Z,7.63
2022-11-04T19:19:26.675Z,7.61
2022-11-04T19:24:58.372Z,7.58
2022-11-04T19:30:31.318Z,7.55
2022-11-04T19:36:02.975Z,7.53
2022-11-04T19:41:34.510Z,7.51
2022-11-04T19:47:06.372Z,7.49
2022-11-04T19:52:38.354Z,7.44
2022-11-04T19:58:10.480Z,7.43
2022-11-04T20:03:41.883Z,7.41
2022-11-04T20:14:45.654Z,7.23
2022-11-04T20:20:17.270Z,7.15
2022-11-04T20:25:49.364Z,7.08
2022-11-04T20:31:21.148Z,7.01
2022-11-04T20:36:52.817Z,6.94
2022-11-04T20:42:24.746Z,6.87
2022-11-04T20:47:56.175Z,6.80
2022-11-04T20:53:28.250Z,6.73
2022-11-04T20:59:00.213Z,6.68
2022-11-04T21:10:01.371Z,6.57
2022-11-04T21:15:32.810Z,6.53
2022-11-04T21:21:04.924Z,6.51
2022-11-04T21:26:37.154Z,6.49
2022-11-04T21:32:08.743Z,6.50
2022-11-04T21:48:44.235Z,6.62
2022-11-04T21:54:17.802Z,6.66
2022-11-04T22:05:19.093Z,6.77
2022-11-04T22:10:51.308Z,6.84
2022-11-04T22:16:23.251Z,6.89
2022-11-04T22:21:54.876Z,6.95
2022-11-04T22:32:58.389Z,7.04
2022-11-04T22:38:29.911Z,7.08
2022-11-04T22:44:01.807Z,7.11
2022-11-04T22:49:33.349Z,7.14
2022-11-04T22:55:05.413Z,7.17
2022-11-04T23:00:36.979Z,7.20
2022-11-04T23:06:08.911Z,7.22
2022-11-04T23:11:41.150Z,7.24
2022-11-04T23:17:12.896Z,7.27
2022-11-04T23:22:44.853Z,7.30
2022-11-04T23:28:16.548Z,7.32
2022-11-04T23:33:48.290Z,7.33
2022-11-04T23:39:20.217Z,7.34
2022-11-04T23:44:51.948Z,7.36
2022-11-04T23:55:58.020Z,7.42
